Time;durP1;ratioP1;P1;durP2;ratioP2;P2;SDS_P1;SDS_P2;PMS_P1;PMS_P2;Temp;Humidity;BMP_temperature;BMP_pressure;BME280_temperature;BME280_humidity;BME280_pressure;Samples;Min_cycle;Max_cycle;Signal;HPM_P1;HPM_P2
2021/09/20 00:01:34;;;;;;;7.13;1.50;;;15.20;96.80;;;;;;5055785;28;20017;-74
2021/09/20 00:04:00;;;;;;;6.40;1.88;;;15.20;96.80;;;;;;5055681;28;20013;-73
2021/09/20 00:06:25;;;;;;;5.80;1.60;;;15.20;97.00;;;;;;5055645;28;20151;-73
2021/09/20 00:08:51;;;;;;;8.52;2.10;;;15.20;96.80;;;;;;5055398;28;20079;-74
2021/09/20 00:11:17;;;;;;;8.50;1.88;;;15.20;97.00;;;;;;5055540;28;20126;-74
2021/09/20 00:13:43;;;;;;;9.02;1.80;;;15.20;96.80;;;;;;5056060;28;20036;-74
2021/09/20 00:16:09;;;;;;;5.90;1.50;;;15.20;97.00;;;;;;5055650;28;20033;-73
2021/09/20 00:18:34;;;;;;;8.52;2.38;;;15.20;97.00;;;;;;5055536;28;20019;-74
2021/09/20 00:21:01;;;;;;;6.50;1.58;;;15.30;96.70;;;;;;5055463;28;20032;-74
2021/09/20 00:23:27;;;;;;;10.43;2.30;;;15.30;96.40;;;;;;5055352;28;20031;-74
2021/09/20 00:25:53;;;;;;;11.00;2.03;;;15.30;96.60;;;;;;5055293;28;20103;-74
2021/09/20 00:28:19;;;;;;;8.70;2.15;;;15.30;96.90;;;;;;5055830;28;20045;-74
2021/09/20 00:30:45;;;;;;;6.53;1.88;;;15.20;97.00;;;;;;5055162;28;20037;-74
2021/09/20 00:33:11;;;;;;;7.22;1.90;;;15.20;97.00;;;;;;5055143;28;20103;-74
2021/09/20 00:35:37;;;;;;;9.13;2.35;;;15.20;97.10;;;;;;5055056;28;20025;-74
2021/09/20 00:38:04;;;;;;;8.95;1.95;;;15.10;97.00;;;;;;5055082;28;20029;-74
2021/09/20 00:40:30;;;;;;;7.45;1.70;;;15.10;97.20;;;;;;5055274;28;20387;-73
2021/09/20 00:42:55;;;;;;;8.00;1.80;;;15.10;97.30;;;;;;5054965;28;20021;-74
2021/09/20 00:45:21;;;;;;;7.82;2.22;;;15.10;97.20;;;;;;5055227;28;20025;-74
2021/09/20 00:47:46;;;;;;;8.32;1.60;;;15.10;97.30;;;;;;5055153;28;20025;-74
2021/09/20 00:50:13;;;;;;;5.72;2.85;;;15.10;97.10;;;;;;5054858;28;20021;-73
2021/09/20 00:52:39;;;;;;;11.65;2.17;;;15.10;97.20;;;;;;5054127;28;20103;-74
2021/09/20 00:55:07;;;;;;;11.63;1.92;;;15.10;97.20;;;;;;5054694;28;20455;-74
2021/09/20 00:57:33;;;;;;;7.90;2.00;;;15.10;97.20;;;;;;5054681;28;20100;-74
2021/09/20 00:59:59;;;;;;;9.35;1.95;;;15.00;97.50;;;;;;5054645;28;20021;-74
2021/09/20 01:02:25;;;;;;;7.20;2.10;;;15.00;97.50;;;;;;5055197;28;20380;-74
2021/09/20 01:04:51;;;;;;;12.23;2.63;;;15.00;97.40;;;;;;5054622;28;20139;-74
2021/09/20 01:07:16;;;;;;;11.35;2.20;;;15.10;97.30;;;;;;5054367;28;20045;-74
2021/09/20 01:09:43;;;;;;;22.33;2.15;;;15.10;97.10;;;;;;5055079;28;20025;-74
2021/09/20 01:12:09;;;;;;;6.30;1.83;;;15.00;97.10;;;;;;5054725;28;20021;-73
2021/09/20 01:14:35;;;;;;;10.70;2.17;;;15.00;97.00;;;;;;5054310;28;20032;-74
2021/09/20 01:17:01;;;;;;;10.15;1.83;;;15.00;97.30;;;;;;5054365;28;20021;-74
2021/09/20 01:19:27;;;;;;;9.18;2.78;;;15.00;97.30;;;;;;5054595;28;20383;-74
2021/09/20 01:21:56;;;;;;;8.43;1.80;;;15.00;97.40;;;;;;5054219;28;20025;-74
2021/09/20 01:24:21;;;;;;;10.10;1.90;;;14.90;97.50;;;;;;5054189;28;20100;-74
2021/09/20 01:26:47;;;;;;;5.93;1.70;;;14.90;97.70;;;;;;5054132;28;20163;-73
2021/09/20 01:29:13;;;;;;;9.15;1.75;;;14.80;97.80;;;;;;5054124;28;20028;-74
2021/09/20 01:31:39;;;;;;;8.15;1.70;;;14.80;97.70;;;;;;5054057;28;20021;-74
2021/09/20 01:34:04;;;;;;;12.82;1.80;;;14.80;97.70;;;;;;5054036;28;20426;-74
2021/09/20 01:36:30;;;;;;;7.95;1.77;;;14.80;97.70;;;;;;5054101;28;20035;-74
2021/09/20 01:38:56;;;;;;;13.15;2.40;;;14.80;97.70;;;;;;5053992;28;20032;-74
2021/09/20 01:41:21;;;;;;;10.05;2.00;;;14.80;97.70;;;;;;5053862;28;20033;-74
2021/09/20 01:43:47;;;;;;;7.25;1.70;;;14.70;97.70;;;;;;5053820;28;20024;-74
2021/09/20 01:46:13;;;;;;;6.55;2.70;;;14.70;97.90;;;;;;5054317;28;20029;-74
2021/09/20 01:48:38;;;;;;;7.75;2.38;;;14.70;97.80;;;;;;5053973;28;20056;-74
2021/09/20 01:51:04;;;;;;;8.40;1.88;;;14.60;97.70;;;;;;5053679;28;20025;-74
2021/09/20 01:53:29;;;;;;;9.02;2.17;;;14.70;97.70;;;;;;5053890;28;20053;-74
2021/09/20 01:55:55;;;;;;;12.15;2.63;;;14.60;97.70;;;;;;5053523;28;20411;-74
2021/09/20 01:58:21;;;;;;;9.45;2.25;;;14.60;97.90;;;;;;5053520;28;20021;-73
2021/09/20 02:00:47;;;;;;;9.98;2.05;;;14.80;97.80;;;;;;5053592;28;20024;-74
2021/09/20 02:03:13;;;;;;;9.90;2.28;;;14.70;97.60;;;;;;5053381;28;20021;-74
2021/09/20 02:05:39;;;;;;;6.28;2.05;;;14.70;97.40;;;;;;5053714;28;20108;-74
2021/09/20 02:08:05;;;;;;;9.20;2.00;;;14.70;97.20;;;;;;5053184;28;20159;-73
2021/09/20 02:10:31;;;;;;;11.27;1.95;;;14.70;97.20;;;;;;5053392;28;20037;-74
2021/09/20 02:12:56;;;;;;;7.55;2.38;;;14.70;97.10;;;;;;5053619;28;20036;-73
2021/09/20 02:15:22;;;;;;;10.50;1.95;;;14.70;97.30;;;;;;5053250;28;20029;-74
2021/09/20 02:17:48;;;;;;;10.25;2.13;;;14.60;97.50;;;;;;5053268;28;20017;-74
2021/09/20 02:20:14;;;;;;;7.38;1.60;;;14.60;97.40;;;;;;5053533;28;20035;-74
2021/09/20 02:22:39;;;;;;;6.45;2.03;;;14.60;97.40;;;;;;5052187;28;20025;-73
2021/09/20 02:25:08;;;;;;;8.73;2.40;;;14.60;97.20;;;;;;5053453;28;20025;-74
2021/09/20 02:27:37;;;;;;;6.60;1.98;;;14.60;97.10;;;;;;5053204;28;20028;-74
2021/09/20 02:30:05;;;;;;;15.07;2.20;;;14.60;97.10;;;;;;5053152;28;20444;-73
2021/09/20 02:32:35;;;;;;;10.50;2.13;;;14.60;97.30;;;;;;5052979;28;20032;-74
2021/09/20 02:35:02;;;;;;;9.07;2.10;;;14.50;97.30;;;;;;5053573;28;20447;-74
2021/09/20 02:37:28;;;;;;;11.23;2.28;;;14.60;97.20;;;;;;5053318;28;20025;-74
2021/09/20 02:39:54;;;;;;;12.23;1.67;;;14.50;97.20;;;;;;5053048;28;20104;-74
2021/09/20 02:42:19;;;;;;;8.73;1.60;;;14.50;97.60;;;;;;5053002;28;20028;-74
2021/09/20 02:44:47;;;;;;;6.18;2.10;;;14.50;97.20;;;;;;5053012;28;20025;-73
2021/09/20 02:47:13;;;;;;;5.97;1.80;;;14.50;97.20;;;;;;5053270;28;20088;-74
2021/09/20 02:49:39;;;;;;;6.85;1.80;;;14.60;97.10;;;;;;5052951;28;20021;-74
2021/09/20 02:52:05;;;;;;;4.90;1.60;;;14.60;96.40;;;;;;5053237;28;20478;-73
2021/09/20 02:54:31;;;;;;;7.53;2.58;;;14.60;97.00;;;;;;5052968;28;20025;-74
2021/09/20 02:56:56;;;;;;;5.97;2.00;;;14.50;97.00;;;;;;5052804;28;20029;-74
2021/09/20 02:59:22;;;;;;;6.10;2.00;;;14.50;96.60;;;;;;5052786;28;20031;-73
2021/09/20 03:01:48;;;;;;;8.18;1.83;;;14.40;97.00;;;;;;5053122;28;20605;-73
2021/09/20 03:04:13;;;;;;;5.93;2.20;;;14.30;97.20;;;;;;5051502;28;20033;-74
2021/09/20 03:06:39;;;;;;;6.28;2.05;;;14.30;97.40;;;;;;5053064;28;20021;-74
2021/09/20 03:09:05;;;;;;;9.48;2.17;;;14.30;97.80;;;;;;5052389;28;20499;-74
2021/09/20 03:11:30;;;;;;;9.18;2.90;;;14.10;97.90;;;;;;5052786;28;20390;-74
2021/09/20 03:13:56;;;;;;;5.38;1.60;;;14.10;97.80;;;;;;5053082;28;20480;-74
2021/09/20 03:16:22;;;;;;;7.13;1.38;;;14.10;98.00;;;;;;5056702;28;20021;-73
2021/09/20 03:18:47;;;;;;;8.02;1.70;;;14.10;98.00;;;;;;5056875;28;20032;-74
2021/09/20 03:21:13;;;;;;;8.98;1.98;;;14.20;97.90;;;;;;5056531;28;20017;-74
2021/09/20 03:23:38;;;;;;;13.05;2.03;;;14.10;97.90;;;;;;5056491;28;20021;-74
2021/09/20 03:26:05;;;;;;;8.75;2.03;;;14.10;97.90;;;;;;5056646;28;20102;-74
2021/09/20 03:28:31;;;;;;;8.85;1.80;;;14.20;98.10;;;;;;5056668;28;20025;-74
2021/09/20 03:30:57;;;;;;;8.18;2.00;;;14.20;97.90;;;;;;5056631;28;20029;-73
2021/09/20 03:33:22;;;;;;;7.82;2.08;;;14.20;97.70;;;;;;5056843;28;20017;-74
2021/09/20 03:35:48;;;;;;;5.85;1.58;;;14.10;97.80;;;;;;5056194;28;20025;-73
2021/09/20 03:38:13;;;;;;;7.68;1.92;;;14.10;98.00;;;;;;5056548;28;20071;-74
2021/09/20 03:40:39;;;;;;;9.93;2.22;;;14.10;97.90;;;;;;5056453;28;20070;-74
2021/09/20 03:43:05;;;;;;;8.05;2.20;;;14.10;97.90;;;;;;5055165;28;20028;-73
2021/09/20 03:45:30;;;;;;;7.60;2.00;;;14.10;98.00;;;;;;5056082;28;20024;-73
2021/09/20 03:47:56;;;;;;;11.35;1.98;;;14.10;97.90;;;;;;5056300;28;20395;-74
2021/09/20 03:50:22;;;;;;;8.07;2.15;;;14.00;98.10;;;;;;5056298;28;20072;-74
2021/09/20 03:52:47;;;;;;;8.07;1.63;;;14.00;98.10;;;;;;5055923;28;20025;-74
2021/09/20 03:55:13;;;;;;;7.18;1.85;;;14.00;98.20;;;;;;5056102;28;20040;-74
2021/09/20 03:57:39;;;;;;;8.45;1.77;;;14.00;98.20;;;;;;5055875;28;20017;-74
2021/09/20 04:00:06;;;;;;;9.35;1.83;;;14.00;98.20;;;;;;5055780;28;20071;-74
2021/09/20 04:02:31;;;;;;;5.50;1.55;;;14.00;98.20;;;;;;5056323;28;20426;-73
2021/09/20 04:04:57;;;;;;;9.40;2.42;;;14.00;98.20;;;;;;5055753;28;20033;-73
2021/09/20 04:07:23;;;;;;;5.13;1.23;;;14.00;98.40;;;;;;5055471;28;20094;-74
2021/09/20 04:09:49;;;;;;;5.03;2.25;;;14.00;98.30;;;;;;5055969;28;20032;-73
2021/09/20 04:12:14;;;;;;;5.63;1.83;;;13.90;98.30;;;;;;5055601;28;20099;-74
2021/09/20 04:14:40;;;;;;;3.65;1.60;;;13.90;98.30;;;;;;5054201;28;20031;-74
2021/09/20 04:17:07;;;;;;;5.78;1.65;;;13.90;98.30;;;;;;5055751;28;20037;-74
2021/09/20 04:19:33;;;;;;;6.40;1.70;;;13.90;98.30;;;;;;5056017;28;20066;-73
2021/09/20 04:21:59;;;;;;;9.55;1.77;;;14.00;98.40;;;;;;5055427;28;20070;-73
2021/09/20 04:24:25;;;;;;;5.75;1.48;;;14.00;98.30;;;;;;5055645;28;20025;-74
2021/09/20 04:26:50;;;;;;;10.18;2.22;;;14.00;98.20;;;;;;5054011;28;20502;-74
2021/09/20 04:29:16;;;;;;;7.15;1.73;;;14.00;98.30;;;;;;5055347;28;20029;-74
2021/09/20 04:31:42;;;;;;;9.00;1.60;;;13.90;98.40;;;;;;5055528;28;20029;-74
2021/09/20 04:34:07;;;;;;;9.45;2.22;;;13.90;98.40;;;;;;5055702;28;20053;-73
2021/09/20 04:36:33;;;;;;;8.50;2.08;;;13.80;98.50;;;;;;5053830;28;20075;-73
2021/09/20 04:38:59;;;;;;;7.97;1.58;;;13.80;98.50;;;;;;5053776;28;20017;-74
2021/09/20 04:41:24;;;;;;;6.47;1.73;;;13.80;98.60;;;;;;5055004;28;20027;-74
2021/09/20 04:43:50;;;;;;;6.60;1.52;;;13.90;98.60;;;;;;5055006;28;20017;-74
2021/09/20 04:46:16;;;;;;;5.50;1.33;;;13.90;98.40;;;;;;5055228;28;20116;-74
2021/09/20 04:48:41;;;;;;;11.35;1.65;;;13.90;98.40;;;;;;5054905;28;20024;-74
2021/09/20 04:51:07;;;;;;;9.35;1.85;;;13.90;98.40;;;;;;5054901;28;20025;-74
2021/09/20 04:53:33;;;;;;;10.75;2.33;;;13.90;98.30;;;;;;5054849;28;20113;-74
2021/09/20 04:55:58;;;;;;;7.43;2.10;;;13.90;98.50;;;;;;5054700;28;20497;-74
2021/09/20 04:58:24;;;;;;;8.98;2.00;;;13.90;98.30;;;;;;5054862;28;20021;-74
2021/09/20 05:00:50;;;;;;;8.38;2.00;;;14.00;98.00;;;;;;5054684;28;20017;-74
2021/09/20 05:03:15;;;;;;;4.70;1.50;;;13.90;98.00;;;;;;5054970;28;20021;-74
2021/09/20 05:05:41;;;;;;;6.25;1.90;;;13.90;98.30;;;;;;5054854;28;20035;-74
2021/09/20 05:08:07;;;;;;;9.75;2.58;;;13.90;98.20;;;;;;5054357;28;20048;-73
2021/09/20 05:10:32;;;;;;;3.58;1.02;;;13.90;98.10;;;;;;5054720;28;20021;-74
2021/09/20 05:12:58;;;;;;;10.23;2.03;;;13.90;97.80;;;;;;5053121;28;20032;-74
2021/09/20 05:15:24;;;;;;;6.10;1.80;;;13.90;97.80;;;;;;5054325;28;20105;-74
2021/09/20 05:17:50;;;;;;;5.68;2.10;;;13.90;98.10;;;;;;5054384;28;20017;-73
2021/09/20 05:20:17;;;;;;;5.22;1.75;;;13.80;98.20;;;;;;5054569;28;20387;-74
2021/09/20 05:22:42;;;;;;;8.27;1.98;;;13.70;98.50;;;;;;5054304;28;20021;-74
2021/09/20 05:25:09;;;;;;;7.63;1.70;;;13.80;98.30;;;;;;5054245;28;20490;-73
2021/09/20 05:27:36;;;;;;;7.20;1.75;;;13.80;98.40;;;;;;5054460;28;20059;-74
2021/09/20 05:30:03;;;;;;;8.45;1.83;;;13.70;98.40;;;;;;5054143;28;20025;-74
2021/09/20 05:32:28;;;;;;;8.77;2.53;;;13.70;98.30;;;;;;5054080;28;20112;-74
2021/09/20 05:34:54;;;;;;;10.90;2.53;;;13.70;98.60;;;;;;5053932;28;20494;-74
2021/09/20 05:37:20;;;;;;;9.60;1.90;;;13.60;98.60;;;;;;5053789;28;20495;-74
2021/09/20 05:39:46;;;;;;;9.13;1.98;;;13.70;98.70;;;;;;5052581;28;20033;-74
2021/09/20 05:42:12;;;;;;;8.88;1.60;;;13.70;98.60;;;;;;5053897;28;20017;-73
2021/09/20 05:44:37;;;;;;;7.82;1.90;;;13.70;98.60;;;;;;5054319;28;20024;-74
2021/09/20 05:47:03;;;;;;;5.75;1.80;;;13.60;98.60;;;;;;5053786;28;20387;-74
2021/09/20 05:49:29;;;;;;;8.10;1.92;;;13.60;98.30;;;;;;5054040;28;20079;-73
2021/09/20 05:51:55;;;;;;;9.73;2.08;;;13.60;98.80;;;;;;5053989;28;20467;-74
2021/09/20 05:54:21;;;;;;;5.60;1.48;;;13.60;98.60;;;;;;5053954;28;20068;-74
2021/09/20 05:56:46;;;;;;;7.88;1.83;;;13.60;98.80;;;;;;5053804;28;20036;-74
2021/09/20 05:59:12;;;;;;;8.80;1.85;;;13.70;98.30;;;;;;5053528;28;20088;-74
2021/09/20 06:01:37;;;;;;;6.00;1.85;;;13.70;98.40;;;;;;5053839;28;20467;-73
2021/09/20 06:04:03;;;;;;;5.38;1.77;;;13.70;98.20;;;;;;5053765;28;20471;-74
2021/09/20 06:06:29;;;;;;;7.50;1.67;;;13.70;98.40;;;;;;5053724;28;20021;-74
2021/09/20 06:08:55;;;;;;;8.68;2.05;;;13.70;98.40;;;;;;5053251;28;20106;-74
2021/09/20 06:11:20;;;;;;;6.40;1.85;;;13.60;98.60;;;;;;5053428;28;20055;-74
2021/09/20 06:13:46;;;;;;;4.78;1.50;;;13.50;98.90;;;;;;5053612;28;20029;-74
2021/09/20 06:16:13;;;;;;;6.60;1.73;;;13.70;98.70;;;;;;5053229;28;20024;-74
2021/09/20 06:18:38;;;;;;;7.72;2.00;;;13.60;98.70;;;;;;5053841;28;20382;-73
2021/09/20 06:21:04;;;;;;;6.43;1.75;;;13.60;98.70;;;;;;5053236;28;20017;-74
2021/09/20 06:23:30;;;;;;;7.45;1.83;;;13.70;98.60;;;;;;5053200;28;20499;-74
2021/09/20 06:25:56;;;;;;;7.30;1.60;;;13.70;98.60;;;;;;5053207;28;20032;-74
2021/09/20 06:28:22;;;;;;;8.25;2.30;;;13.60;98.60;;;;;;5053475;28;20025;-74
2021/09/20 06:30:48;;;;;;;7.03;2.10;;;13.70;98.90;;;;;;5053113;28;20514;-73
2021/09/20 06:33:13;;;;;;;7.40;2.35;;;13.70;98.40;;;;;;5053135;28;20052;-74
2021/09/20 06:35:39;;;;;;;13.07;2.70;;;13.70;98.60;;;;;;5053328;28;20025;-73
2021/09/20 06:38:05;;;;;;;8.70;2.80;;;13.70;98.60;;;;;;5053048;28;20395;-74
2021/09/20 06:40:31;;;;;;;10.38;2.25;;;13.70;98.80;;;;;;5051787;28;20120;-74
2021/09/20 06:42:57;;;;;;;11.77;1.88;;;13.70;98.80;;;;;;5051810;28;20025;-73
2021/09/20 06:45:22;;;;;;;8.77;2.45;;;13.70;98.80;;;;;;5053546;28;20036;-73
2021/09/20 06:47:48;;;;;;;5.35;1.75;;;13.80;98.80;;;;;;5052984;28;20086;-74
2021/09/20 06:50:14;;;;;;;6.90;1.83;;;13.80;98.50;;;;;;5054785;28;20025;-74
2021/09/20 06:52:40;;;;;;;11.07;2.30;;;13.80;98.90;;;;;;5057120;28;20067;-74
2021/09/20 06:55:07;;;;;;;9.45;2.35;;;13.80;98.70;;;;;;5056988;28;20487;-74
2021/09/20 06:57:33;;;;;;;9.18;2.05;;;13.90;98.60;;;;;;5057030;28;20096;-74
2021/09/20 06:59:59;;;;;;;5.88;1.60;;;13.90;98.60;;;;;;5056933;28;20041;-74
2021/09/20 07:02:24;;;;;;;8.77;2.83;;;13.90;98.50;;;;;;5056908;28;20513;-73
2021/09/20 07:04:50;;;;;;;6.45;1.80;;;13.90;98.60;;;;;;5056954;28;20036;-84
2021/09/20 07:07:17;;;;;;;6.25;2.03;;;13.90;98.60;;;;;;5055301;28;20059;-82
2021/09/20 07:09:44;;;;;;;7.57;2.00;;;14.00;98.50;;;;;;5058982;28;20017;-82
2021/09/20 07:12:11;;;;;;;11.70;2.05;;;14.00;98.60;;;;;;5065120;28;20016;-81
2021/09/20 07:14:37;;;;;;;13.30;2.10;;;14.10;98.60;;;;;;5070553;28;20032;-80
2021/09/20 07:17:04;;;;;;;9.95;2.35;;;14.10;98.60;;;;;;5056574;28;20039;-84
2021/09/20 07:19:30;;;;;;;8.32;2.15;;;14.00;98.80;;;;;;5063118;28;20016;-82
2021/09/20 07:21:56;;;;;;;9.70;1.77;;;14.10;99.00;;;;;;5068069;28;20039;-78
2021/09/20 07:24:21;;;;;;;16.27;3.65;;;14.20;98.70;;;;;;5077200;28;20021;-76
2021/09/20 07:26:47;;;;;;;36.30;22.88;;;14.20;99.90;;;;;;5076307;28;20395;-78
2021/09/20 07:29:12;;;;;;;8.13;2.30;;;14.10;99.90;;;;;;5076502;28;20029;-79
2021/09/20 07:31:38;;;;;;;11.45;2.67;;;14.00;99.90;;;;;;5076225;28;20482;-80
2021/09/20 07:34:04;;;;;;;8.25;2.30;;;13.90;99.90;;;;;;5070389;28;20032;-78
2021/09/20 07:36:29;;;;;;;17.88;3.58;;;13.90;99.90;;;;;;5056222;28;20476;-73
2021/09/20 07:38:55;;;;;;;16.27;6.85;;;13.90;99.90;;;;;;5060395;28;20043;-75
2021/09/20 07:41:21;;;;;;;8.40;2.40;;;14.00;99.90;;;;;;5076160;28;20576;-74
2021/09/20 07:43:47;;;;;;;10.32;2.50;;;14.10;99.90;;;;;;5073900;28;20443;-78
2021/09/20 07:46:22;;;;;;;10.00;2.50;;;14.30;99.90;;;;;;5056048;28;20027;-77
2021/09/20 07:48:49;;;;;;;8.73;2.28;;;14.70;99.90;;;;;;5056544;28;20079;-75
2021/09/20 07:51:15;;;;;;;12.35;2.60;;;14.90;99.90;;;;;;5076086;28;20035;-77
2021/09/20 07:53:40;;;;;;;8.50;2.08;;;15.30;99.90;;;;;;5076299;28;20093;-77
2021/09/20 07:56:06;;;;;;;10.07;2.25;;;15.60;99.90;;;;;;5071000;28;20490;-80
2021/09/20 07:58:32;;;;;;;8.70;2.75;;;15.80;99.90;;;;;;5075869;28;20486;-74
2021/09/20 08:00:59;;;;;;;10.55;2.00;;;16.10;99.90;;;;;;5075082;28;20035;-79
2021/09/20 08:03:25;;;;;;;12.68;2.70;;;16.30;99.70;;;;;;5075816;28;20101;-79
2021/09/20 08:05:52;;;;;;;8.75;2.10;;;16.60;98.70;;;;;;5059389;28;20036;-80
2021/09/20 08:08:18;;;;;;;7.70;1.98;;;16.80;96.60;;;;;;5072400;28;20044;-77
2021/09/20 08:10:44;;;;;;;8.02;1.73;;;16.90;97.10;;;;;;5075666;28;20463;-77
2021/09/20 08:13:10;;;;;;;7.55;1.90;;;17.10;95.40;;;;;;5059806;28;20025;-76
2021/09/20 08:15:36;;;;;;;10.50;2.30;;;17.40;96.20;;;;;;5056036;28;20029;-77
2021/09/20 08:18:03;;;;;;;8.52;1.90;;;17.70;94.80;;;;;;5069906;28;20020;-76
2021/09/20 08:20:29;;;;;;;11.10;2.65;;;17.90;93.60;;;;;;5075546;28;20427;-80
2021/09/20 08:22:55;;;;;;;7.95;2.13;;;18.20;93.20;;;;;;5075035;28;20056;-80
2021/09/20 08:25:22;;;;;;;11.93;2.25;;;18.20;93.50;;;;;;5075243;28;20371;-71
2021/09/20 08:27:48;;;;;;;6.75;1.85;;;18.30;92.90;;;;;;5055428;28;20118;-77
2021/09/20 08:30:15;;;;;;;6.35;2.15;;;18.30;92.50;;;;;;5055353;28;20108;-78
2021/09/20 08:32:40;;;;;;;10.23;2.63;;;18.40;92.50;;;;;;5069593;28;20532;-73
2021/09/20 08:35:06;;;;;;;8.85;2.42;;;18.50;91.80;;;;;;5056183;28;20025;-74
2021/09/20 08:37:32;;;;;;;7.43;2.50;;;18.60;92.20;;;;;;5055365;28;20021;-73
2021/09/20 08:39:58;;;;;;;8.48;1.88;;;19.10;91.70;;;;;;5063637;28;20111;-73
2021/09/20 08:42:23;;;;;;;13.77;2.60;;;19.40;90.10;;;;;;5075086;28;20471;-74
2021/09/20 08:44:49;;;;;;;7.38;1.80;;;19.80;88.00;;;;;;5073764;28;20120;-73
2021/09/20 08:47:16;;;;;;;10.35;3.42;;;20.10;87.50;;;;;;5075308;28;20074;-75
2021/09/20 08:49:43;;;;;;;9.75;2.25;;;20.00;86.60;;;;;;5067973;28;20028;-73
2021/09/20 08:52:09;;;;;;;8.10;1.90;;;19.90;87.50;;;;;;5056394;28;20479;-74
2021/09/20 08:54:35;;;;;;;5.53;2.05;;;20.20;86.40;;;;;;5059551;28;20546;-79
2021/09/20 08:57:01;;;;;;;11.02;2.35;;;20.50;83.70;;;;;;5070287;28;20020;-77
2021/09/20 08:59:28;;;;;;;9.18;2.15;;;20.90;81.60;;;;;;5060199;28;20120;-76
2021/09/20 09:01:55;;;;;;;8.85;2.30;;;20.90;82.00;;;;;;5063586;28;20070;-77
2021/09/20 09:04:30;;;;;;;7.60;2.22;;;20.90;81.70;;;;;;5074668;28;20154;-77
2021/09/20 09:07:04;;;;;;;8.85;2.35;;;21.40;79.70;;;;;;5065334;28;20394;-77
2021/09/20 09:09:34;;;;;;;10.13;2.45;;;21.70;79.80;;;;;;5058834;28;20033;-77
2021/09/20 09:12:12;;;;;;;8.00;2.38;;;22.10;75.10;;;;;;5073774;28;20039;-78
2021/09/20 09:14:43;;;;;;;12.45;2.72;;;22.50;77.10;;;;;;5074412;28;20032;-75
2021/09/20 09:17:13;;;;;;;10.73;2.70;;;22.10;76.60;;;;;;5071187;28;20089;-75
2021/09/20 09:19:48;;;;;;;11.45;3.05;;;21.60;77.40;;;;;;5072454;28;20020;-78
2021/09/20 09:22:14;;;;;;;7.88;2.35;;;21.00;83.10;;;;;;5061438;28;20040;-79
2021/09/20 09:24:58;;;;;;;7.70;2.33;;;21.00;83.80;;;;;;5058596;28;20395;-83
2021/09/20 09:27:24;;;;;;;7.47;2.03;;;21.20;79.90;;;;;;5054563;28;20025;-83
2021/09/20 09:29:50;;;;;;;7.30;1.88;;;20.90;80.40;;;;;;5054654;28;20475;-80
2021/09/20 09:32:18;;;;;;;7.95;2.38;;;20.80;82.20;;;;;;5055268;28;20098;-74
2021/09/20 09:35:07;;;;;;;7.68;2.38;;;21.10;78.60;;;;;;5054116;28;20025;-78
2021/09/20 09:37:34;;;;;;;8.70;2.53;;;20.80;79.80;;;;;;5068261;28;20557;-73
2021/09/20 09:40:08;;;;;;;9.68;2.50;;;20.60;80.00;;;;;;5071446;28;20390;-77
2021/09/20 09:42:35;;;;;;;11.55;2.53;;;20.50;81.20;;;;;;5071321;28;20020;-80
2021/09/20 09:45:15;;;;;;;5.63;2.00;;;20.50;80.80;;;;;;5072802;28;20550;-74
2021/09/20 09:47:40;;;;;;;;;;;20.40;82.20;;;;;;5055955;28;20108;-77
2021/09/20 09:50:16;;;;;;;11.95;2.50;;;20.20;83.70;;;;;;5054780;28;20010;-77
2021/09/20 09:52:43;;;;;;;10.07;2.38;;;20.10;82.40;;;;;;5063433;28;20016;-74
2021/09/20 09:55:10;;;;;;;9.90;2.58;;;20.00;82.60;;;;;;5073355;28;20100;-73
2021/09/20 09:57:36;;;;;;;9.07;2.42;;;20.00;83.90;;;;;;5073639;28;20085;-79
2021/09/20 10:00:07;;;;;;;10.30;2.70;;;20.30;83.70;;;;;;5054144;28;20406;-80
2021/09/20 10:02:35;;;;;;;8.82;2.10;;;20.10;83.60;;;;;;5070564;28;20062;-80
2021/09/20 10:05:06;;;;;;;11.13;2.47;;;20.10;83.30;;;;;;5071251;28;20019;-80
2021/09/20 10:07:35;;;;;;;5.55;1.85;;;20.50;82.30;;;;;;5053715;28;20044;-80
2021/09/20 10:10:05;;;;;;;6.38;2.25;;;20.60;80.60;;;;;;5073641;28;20036;-79
2021/09/20 10:12:31;;;;;;;5.70;1.77;;;20.60;79.20;;;;;;5059751;28;20021;-80
2021/09/20 10:14:59;;;;;;;7.72;1.92;;;20.50;78.50;;;;;;5054595;28;20033;-81
2021/09/20 10:17:29;;;;;;;8.10;1.95;;;20.10;79.70;;;;;;5062082;28;20549;-79
2021/09/20 10:19:56;;;;;;;8.60;1.85;;;19.80;80.10;;;;;;5073628;28;20070;-80
2021/09/20 10:22:23;;;;;;;8.23;1.92;;;19.70;80.10;;;;;;5060368;28;20440;-78
2021/09/20 10:24:51;;;;;;;9.80;2.17;;;19.50;78.50;;;;;;5053080;28;20096;-75
2021/09/20 10:27:21;;;;;;;10.10;2.15;;;19.40;78.80;;;;;;5060238;28;20033;-73
2021/09/20 10:29:51;;;;;;;10.82;1.77;;;19.50;79.60;;;;;;5064526;28;20058;-74
2021/09/20 10:32:19;;;;;;;8.07;1.63;;;19.60;79.40;;;;;;5052736;28;20017;-73
2021/09/20 10:34:46;;;;;;;5.72;1.98;;;19.40;79.00;;;;;;5050621;28;20498;-71
2021/09/20 10:37:14;;;;;;;9.65;2.08;;;19.40;81.20;;;;;;5052354;28;20017;-74
2021/09/20 10:39:48;;;;;;;6.88;1.83;;;19.40;78.70;;;;;;5053000;28;20364;-74
2021/09/20 10:42:48;;;;;;;6.85;1.83;;;19.40;80.00;;;;;;5053116;28;20017;-73
2021/09/20 10:45:32;;;;;;;5.13;1.33;;;19.40;80.80;;;;;;5051685;28;20031;-71
2021/09/20 10:48:16;;;;;;;5.85;1.75;;;19.30;78.60;;;;;;5053221;28;20033;-71
2021/09/20 10:50:47;;;;;;;5.97;1.58;;;19.30;75.00;;;;;;5053084;28;20032;-73
2021/09/20 10:53:17;;;;;;;8.18;1.90;;;19.20;77.60;;;;;;5052914;28;20021;-71
2021/09/20 10:56:01;;;;;;;5.18;1.30;;;19.30;78.40;;;;;;5053183;28;20491;-72
2021/09/20 10:58:28;;;;;;;9.38;2.22;;;19.40;78.00;;;;;;5052896;28;20096;-71
2021/09/20 11:01:15;;;;;;;8.20;2.10;;;19.40;77.90;;;;;;5052866;28;20025;-72
2021/09/20 11:03:42;;;;;;;7.40;1.58;;;19.40;78.70;;;;;;5051591;28;20075;-73
2021/09/20 11:06:21;;;;;;;6.38;1.75;;;19.50;79.60;;;;;;5052702;28;20025;-71
2021/09/20 11:09:08;;;;;;;8.15;1.90;;;19.50;78.30;;;;;;5052810;28;20052;-71
2021/09/20 11:11:43;;;;;;;6.38;1.67;;;19.60;79.70;;;;;;5053190;28;20025;-73
2021/09/20 11:14:09;;;;;;;6.63;1.52;;;19.60;76.00;;;;;;5052756;28;20017;-73
2021/09/20 11:16:51;;;;;;;4.20;1.40;;;19.60;76.10;;;;;;5052655;28;20033;-72
2021/09/20 11:19:26;;;;;;;5.35;1.77;;;19.40;74.60;;;;;;5052978;28;20040;-73
2021/09/20 11:22:21;;;;;;;8.75;1.73;;;19.30;75.70;;;;;;5052710;28;20025;-72
2021/09/20 11:24:53;;;;;;;6.60;1.73;;;19.30;75.70;;;;;;5052936;28;20028;-73
2021/09/20 11:27:27;;;;;;;4.47;1.48;;;19.20;77.30;;;;;;5052620;28;20021;-72
2021/09/20 11:29:56;;;;;;;6.60;1.50;;;19.20;77.90;;;;;;5052582;28;20025;-71
2021/09/20 11:32:22;;;;;;;8.00;1.67;;;19.30;79.30;;;;;;5053146;28;20464;-71
2021/09/20 11:34:52;;;;;;;6.15;1.80;;;19.40;79.80;;;;;;5052834;28;20056;-72
2021/09/20 11:37:32;;;;;;;8.32;2.13;;;19.60;79.10;;;;;;5056025;28;20029;-73
2021/09/20 11:40:00;;;;;;;6.88;1.95;;;19.50;79.00;;;;;;5056604;28;20057;-74
2021/09/20 11:42:37;;;;;;;8.68;1.98;;;19.50;76.00;;;;;;5056258;28;20028;-71
2021/09/20 11:45:26;;;;;;;8.48;2.08;;;19.40;76.10;;;;;;5056437;28;20467;-72
2021/09/20 11:48:01;;;;;;;6.22;1.77;;;19.50;77.10;;;;;;5056652;28;20025;-73
2021/09/20 11:50:43;;;;;;;4.97;1.73;;;19.50;77.70;;;;;;5056424;28;20098;-72
2021/09/20 11:53:13;;;;;;;4.25;1.63;;;19.30;78.80;;;;;;5056337;28;20028;-73
2021/09/20 11:55:43;;;;;;;8.48;2.17;;;19.40;80.60;;;;;;5055946;28;20036;-73
2021/09/20 11:58:10;;;;;;;9.35;2.08;;;19.60;79.50;;;;;;5056148;28;20017;-74
2021/09/20 12:00:38;;;;;;;12.15;2.45;;;19.80;76.80;;;;;;5055843;28;20028;-73
2021/09/20 12:03:08;;;;;;;5.90;1.80;;;19.70;78.00;;;;;;5056370;28;20075;-73
2021/09/20 12:05:36;;;;;;;6.60;1.77;;;19.80;77.80;;;;;;5055849;28;20025;-73
2021/09/20 12:08:12;;;;;;;5.95;1.50;;;19.70;78.60;;;;;;5055540;28;20499;-73
2021/09/20 12:10:57;;;;;;;5.03;1.35;;;19.80;75.20;;;;;;5055984;28;20100;-73
2021/09/20 12:13:29;;;;;;;5.40;1.65;;;19.80;73.80;;;;;;5065340;28;20028;-77
2021/09/20 12:16:01;;;;;;;72.80;58.13;;;19.80;74.70;;;;;;5065425;28;20103;-79
2021/09/20 12:18:28;;;;;;;13.10;6.88;;;19.90;74.80;;;;;;5056372;28;20075;-80
2021/09/20 12:20:58;;;;;;;5.57;2.20;;;19.90;75.00;;;;;;5073018;28;20024;-75
2021/09/20 12:23:26;;;;;;;4.20;1.35;;;19.80;74.30;;;;;;5075586;28;20031;-75
2021/09/20 12:25:56;;;;;;;4.43;1.50;;;19.90;74.70;;;;;;5075423;28;20441;-75
2021/09/20 12:28:24;;;;;;;;;;;19.90;73.50;;;;;;5076161;28;20028;-77
2021/09/20 12:31:03;;;;;;;4.70;1.42;;;19.80;72.10;;;;;;5075650;28;19911;-79
2021/09/20 12:33:47;;;;;;;11.00;2.47;;;19.90;72.70;;;;;;5068978;28;20431;-81
2021/09/20 12:36:21;;;;;;;10.38;1.77;;;19.80;73.40;;;;;;5055480;28;20091;-76
2021/09/20 12:38:59;;;;;;;4.93;1.50;;;19.80;75.30;;;;;;5068876;28;20051;-75
2021/09/20 12:41:39;;;;;;;6.07;1.63;;;19.90;76.00;;;;;;5075482;28;20514;-74
2021/09/20 12:44:06;;;;;;;6.00;2.33;;;19.80;71.90;;;;;;5074643;28;20150;-74
2021/09/20 12:46:34;;;;;;;3.88;1.65;;;19.80;71.30;;;;;;5074979;28;20039;-73
2021/09/20 12:49:01;;;;;;;5.95;1.73;;;19.70;72.70;;;;;;5058928;28;20033;-76